AU-0049 weather

Kooringal Airstrip
Queensland, Australia

Public forecast

Using degrees Celsius for public forecast. Weather courtesy of forecast.io.

METAR (pilot weather report)

Closest report is Brisbane International Airport, 16.6 nm (30.8 km) W. Retrieved 2019/04/18 10:00 UTC (4 minutes ago):

YBBN 181000Z 18005KT 9999 SCT030 22/17 Q1023 NOSIG

TAF (pilot weather forecast)

Closest forecast is Brisbane International Airport, 16.6 nm (30.8 km) W. Retrieved 2019/04/18 06:00 UTC (4 hours ago):

TAF YBBN 180503Z 1806/1912 13012KT 9999 SCT035 FM181100 19008KT 9999 -SHRA SCT020 SCT035 FM182300 13014KT 9999 -SHRA SCT025 BKN040 INTER 1818/1912 3000 SHRA BKN012